Time;durP1;ratioP1;P1;durP2;ratioP2;P2;SDS_P1;SDS_P2;PMS_P1;PMS_P2;Temp;Humidity;BMP_temperature;BMP_pressure;BME280_temperature;BME280_humidity;BME280_pressure;Samples;Min_cycle;Max_cycle;Signal;HPM_P1;HPM_P2
2024/04/04 00:01:39;;;;;;;11.97;8.30;;;23.00;55.40;;;;;;4992948;28;20261;-69
2024/04/04 00:04:04;;;;;;;10.33;9.03;;;23.00;55.40;;;;;;4992836;28;20215;-71
2024/04/04 00:06:30;;;;;;;12.93;8.23;;;23.00;55.40;;;;;;4996501;28;20184;-71
2024/04/04 00:08:55;;;;;;;11.93;8.67;;;23.00;55.40;;;;;;4997218;28;20184;-69
2024/04/04 00:11:21;;;;;;;12.83;8.57;;;23.00;55.40;;;;;;4996312;28;20185;-70
2024/04/04 00:13:47;;;;;;;9.80;7.97;;;23.00;56.00;;;;;;4996757;28;20200;-70
2024/04/04 00:16:13;;;;;;;21.93;9.00;;;23.00;55.40;;;;;;4996467;28;20183;-70
2024/04/04 00:18:39;;;;;;;10.40;8.20;;;23.00;55.40;;;;;;4996207;28;20418;-69
2024/04/04 00:21:05;;;;;;;12.93;8.37;;;23.00;55.40;;;;;;4996442;28;20507;-69
2024/04/04 00:23:30;;;;;;;9.80;7.10;;;23.00;55.40;;;;;;4977741;28;20177;-69
2024/04/04 00:25:56;;;;;;;14.73;8.60;;;23.00;55.40;;;;;;4996515;28;20264;-68
2024/04/04 00:28:22;;;;;;;13.37;7.63;;;23.00;55.40;;;;;;4996591;28;20640;-68
2024/04/04 00:30:47;;;;;;;11.60;7.53;;;23.00;55.50;;;;;;4995626;28;20576;-69
2024/04/04 00:33:13;;;;;;;8.93;7.23;;;23.00;55.60;;;;;;4978291;28;20624;-70
2024/04/04 00:35:38;;;;;;;11.20;8.33;;;23.00;55.50;;;;;;4996015;28;20207;-70
2024/04/04 00:38:04;;;;;;;9.93;8.30;;;23.00;55.50;;;;;;4996032;28;20259;-71
2024/04/04 00:40:37;;;;;;;13.50;8.23;;;23.00;55.50;;;;;;4995669;28;20204;-70
2024/04/04 00:43:03;;;;;;;8.60;7.50;;;23.00;55.50;;;;;;4995792;28;20570;-69
2024/04/04 00:45:28;;;;;;;11.80;8.17;;;23.00;55.50;;;;;;4996139;28;20491;-70
2024/04/04 00:47:54;;;;;;;11.77;8.50;;;23.00;55.60;;;;;;4995855;28;20417;-70
2024/04/04 00:50:20;;;;;;;11.53;7.60;;;23.00;55.60;;;;;;4995796;28;20601;-70
2024/04/04 00:52:46;;;;;;;10.83;8.07;;;23.00;55.60;;;;;;4995441;28;20193;-69
2024/04/04 00:55:11;;;;;;;12.10;8.70;;;23.00;55.60;;;;;;4995708;28;20319;-69
2024/04/04 00:57:38;;;;;;;11.80;7.67;;;23.00;55.60;;;;;;4995399;28;20203;-71
2024/04/04 01:00:05;;;;;;;10.73;7.73;;;22.90;56.10;;;;;;4995580;28;20203;-70
2024/04/04 01:02:30;;;;;;;12.43;8.30;;;23.00;55.60;;;;;;4995586;28;20785;-70
2024/04/04 01:04:56;;;;;;;9.37;7.70;;;22.90;55.60;;;;;;4995506;28;20467;-70
2024/04/04 01:07:23;;;;;;;13.60;7.70;;;22.90;55.50;;;;;;4995574;28;20181;-70
2024/04/04 01:09:48;;;;;;;9.50;7.50;;;22.90;55.50;;;;;;4995339;28;20560;-71
2024/04/04 01:12:14;;;;;;;10.30;7.90;;;23.00;55.70;;;;;;4994975;28;20431;-69
2024/04/04 01:14:39;;;;;;;10.00;7.37;;;22.90;55.60;;;;;;4995405;28;20184;-70
2024/04/04 01:17:05;;;;;;;9.90;7.93;;;22.90;55.60;;;;;;4977825;28;20596;-70
2024/04/04 01:19:30;;;;;;;9.40;8.37;;;22.90;55.60;;;;;;4977770;28;20272;-69
2024/04/04 01:21:56;;;;;;;10.87;8.10;;;22.90;55.60;;;;;;4995433;28;20247;-69
2024/04/04 01:24:22;;;;;;;8.83;7.87;;;22.90;55.60;;;;;;4995084;28;20201;-70
2024/04/04 01:26:47;;;;;;;11.53;7.90;;;22.90;55.60;;;;;;4995118;28;20212;-69
2024/04/04 01:29:13;;;;;;;10.40;7.63;;;22.90;55.60;;;;;;4995570;28;20173;-70
2024/04/04 01:31:38;;;;;;;11.60;8.30;;;22.90;55.60;;;;;;4994662;28;20232;-70
2024/04/04 01:34:04;;;;;;;9.60;8.40;;;22.90;55.60;;;;;;4994249;28;20177;-70
2024/04/04 01:36:30;;;;;;;10.87;7.47;;;22.90;56.20;;;;;;4994694;28;20189;-70
2024/04/04 01:38:56;;;;;;;9.07;7.37;;;22.90;55.60;;;;;;4994540;28;20181;-70
2024/04/04 01:41:22;;;;;;;8.90;7.90;;;22.90;55.70;;;;;;4994700;28;20192;-70
2024/04/04 01:43:48;;;;;;;11.77;7.27;;;22.90;55.70;;;;;;4994756;28;20412;-70
2024/04/04 01:46:13;;;;;;;9.83;7.70;;;22.90;55.70;;;;;;4994736;28;20549;-69
2024/04/04 01:48:39;;;;;;;9.70;8.03;;;22.90;55.70;;;;;;4994300;28;20181;-70
2024/04/04 01:51:04;;;;;;;9.63;7.53;;;22.90;55.70;;;;;;4994710;28;20197;-71
2024/04/04 01:53:33;;;;;;;8.20;6.90;;;22.90;55.70;;;;;;4994911;28;20177;-70
2024/04/04 01:56:00;;;;;;;10.00;7.50;;;22.90;55.70;;;;;;4994675;28;20173;-69
2024/04/04 01:58:25;;;;;;;9.07;7.50;;;22.90;55.70;;;;;;4994500;28;20408;-70
2024/04/04 02:00:51;;;;;;;9.97;7.10;;;22.90;55.70;;;;;;4993970;28;20432;-69
2024/04/04 02:03:17;;;;;;;8.40;7.40;;;22.80;55.60;;;;;;4994374;28;20598;-69
2024/04/04 02:05:43;;;;;;;9.73;8.37;;;22.90;55.70;;;;;;4994357;28;20255;-70
2024/04/04 02:08:08;;;;;;;8.90;6.73;;;22.80;55.70;;;;;;4994279;28;20416;-70
2024/04/04 02:10:34;;;;;;;8.40;6.90;;;22.80;55.60;;;;;;4994484;28;20621;-70
2024/04/04 02:13:00;;;;;;;11.07;7.60;;;22.80;55.60;;;;;;4994574;28;20196;-70
2024/04/04 02:15:26;;;;;;;10.80;8.37;;;22.80;55.60;;;;;;4994359;28;20177;-70
2024/04/04 02:17:53;;;;;;;8.83;7.63;;;22.80;56.20;;;;;;4995033;28;20408;-70
2024/04/04 02:20:18;;;;;;;8.27;7.27;;;22.80;55.60;;;;;;4994186;28;20494;-70
2024/04/04 02:22:44;;;;;;;7.50;5.93;;;22.80;55.60;;;;;;4994140;28;20510;-70
2024/04/04 02:25:10;;;;;;;8.57;6.77;;;22.90;55.70;;;;;;4994095;28;20462;-69
2024/04/04 02:27:36;;;;;;;8.37;7.03;;;22.80;55.70;;;;;;4993610;28;20660;-69
2024/04/04 02:30:02;;;;;;;9.10;5.83;;;22.80;55.60;;;;;;4993831;28;20455;-70
2024/04/04 02:32:28;;;;;;;10.53;8.03;;;22.90;55.70;;;;;;4994156;28;20196;-70
2024/04/04 02:34:54;;;;;;;8.13;6.87;;;22.80;55.60;;;;;;4994183;28;21010;-69
2024/04/04 02:37:20;;;;;;;8.33;6.90;;;22.80;55.60;;;;;;4994199;28;20319;-69
2024/04/04 02:39:46;;;;;;;8.20;7.30;;;22.80;56.20;;;;;;4993909;28;20499;-70
2024/04/04 02:42:11;;;;;;;10.37;7.00;;;22.80;55.60;;;;;;4993941;28;20177;-69
2024/04/04 02:44:37;;;;;;;7.67;6.90;;;22.80;55.70;;;;;;4993226;28;20668;-69
2024/04/04 02:47:03;;;;;;;8.57;7.03;;;22.80;55.70;;;;;;4994054;28;20209;-67
2024/04/04 02:49:28;;;;;;;9.60;7.00;;;22.80;55.60;;;;;;4993881;28;20188;-70
2024/04/04 02:51:54;;;;;;;10.90;6.93;;;22.80;55.60;;;;;;4994223;28;20199;-69
2024/04/04 02:54:20;;;;;;;8.27;6.33;;;22.80;55.70;;;;;;4993979;28;20184;-70
2024/04/04 02:56:48;;;;;;;7.57;6.77;;;22.80;55.60;;;;;;4993906;28;20180;-70
2024/04/04 02:59:14;;;;;;;8.80;7.00;;;22.80;55.60;;;;;;4993574;28;20652;-69
2024/04/04 03:01:40;;;;;;;7.60;6.57;;;22.80;55.70;;;;;;4993326;28;20551;-70
2024/04/04 03:04:07;;;;;;;9.87;6.77;;;22.80;55.60;;;;;;4993162;28;20231;-69
2024/04/04 03:06:34;;;;;;;8.80;6.33;;;22.80;55.60;;;;;;4993750;28;20204;-70
2024/04/04 03:09:00;;;;;;;8.50;6.30;;;22.80;55.70;;;;;;4993314;28;20463;-70
2024/04/04 03:11:26;;;;;;;8.53;6.87;;;22.80;55.60;;;;;;4993369;28;20855;-71
2024/04/04 03:13:52;;;;;;;8.63;6.80;;;22.80;55.60;;;;;;4993323;28;20180;-69
2024/04/04 03:16:17;;;;;;;9.00;6.90;;;22.80;55.60;;;;;;4993114;28;20404;-69
2024/04/04 03:18:43;;;;;;;7.97;7.17;;;22.80;55.70;;;;;;4993811;28;20180;-69
2024/04/04 03:21:09;;;;;;;8.37;6.37;;;22.80;55.70;;;;;;4992769;28;20200;-70
2024/04/04 03:23:34;;;;;;;7.67;6.23;;;22.80;55.60;;;;;;4992895;28;20164;-71
2024/04/04 03:26:00;;;;;;;8.53;6.87;;;22.80;55.60;;;;;;4993151;28;20735;-70
2024/04/04 03:28:25;;;;;;;7.93;7.00;;;22.80;55.70;;;;;;4992976;28;20198;-69
2024/04/04 03:30:51;;;;;;;9.60;6.57;;;22.80;55.60;;;;;;4992908;28;20276;-69
2024/04/04 03:33:16;;;;;;;10.83;7.33;;;22.80;55.60;;;;;;4992854;28;20173;-70
2024/04/04 03:35:42;;;;;;;8.00;6.70;;;22.80;55.70;;;;;;4992977;28;20287;-69
2024/04/04 03:38:08;;;;;;;10.07;6.47;;;22.80;55.60;;;;;;4993062;28;20190;-68
2024/04/04 03:40:33;;;;;;;8.17;6.60;;;22.80;55.70;;;;;;4995057;28;20223;-70
2024/04/04 03:43:02;;;;;;;7.73;5.90;;;22.80;55.70;;;;;;4979196;28;20189;-69
2024/04/04 03:45:28;;;;;;;7.70;6.10;;;22.80;55.60;;;;;;4996682;28;20201;-69
2024/04/04 03:47:54;;;;;;;6.70;6.00;;;22.80;55.60;;;;;;4996937;28;20447;-69
2024/04/04 03:50:19;;;;;;;8.83;7.30;;;22.80;55.60;;;;;;4996371;28;21005;-70
2024/04/04 03:52:45;;;;;;;8.53;6.30;;;22.80;55.70;;;;;;4978921;28;20196;-70
2024/04/04 03:55:11;;;;;;;7.57;6.20;;;22.80;55.60;;;;;;4996567;28;20263;-70
2024/04/04 03:57:37;;;;;;;10.03;6.30;;;22.80;55.60;;;;;;4996852;28;20189;-69
2024/04/04 04:00:06;;;;;;;6.47;4.97;;;22.80;55.60;;;;;;4996986;28;20316;-68
2024/04/04 04:02:32;;;;;;;8.37;6.83;;;22.80;56.20;;;;;;4996822;28;20420;-70
2024/04/04 04:04:57;;;;;;;6.47;5.73;;;22.80;55.60;;;;;;4996342;28;21049;-69
2024/04/04 04:07:23;;;;;;;10.07;7.17;;;22.80;55.60;;;;;;4996225;28;20181;-70
2024/04/04 04:09:48;;;;;;;6.50;5.90;;;22.80;55.70;;;;;;4996414;28;20558;-71
2024/04/04 04:12:14;;;;;;;7.43;6.30;;;22.80;55.60;;;;;;4996017;28;20223;-69
2024/04/04 04:14:40;;;;;;;6.93;6.23;;;22.80;55.60;;;;;;4996255;28;20189;-70
2024/04/04 04:17:05;;;;;;;7.00;6.00;;;22.80;55.70;;;;;;4996097;28;20180;-69
2024/04/04 04:19:31;;;;;;;7.30;5.73;;;22.80;55.60;;;;;;4996102;28;20184;-70
2024/04/04 04:21:56;;;;;;;6.90;5.77;;;22.80;55.60;;;;;;4995713;28;20683;-69
2024/04/04 04:24:22;;;;;;;8.27;6.20;;;22.80;55.60;;;;;;4996177;28;20205;-69
2024/04/04 04:26:49;;;;;;;8.30;6.17;;;22.80;55.60;;;;;;4996488;28;20177;-68
2024/04/04 04:29:17;;;;;;;6.60;5.00;;;22.80;55.60;;;;;;4996263;28;20200;-70
2024/04/04 04:31:43;;;;;;;6.80;6.00;;;22.80;55.60;;;;;;4995982;28;20434;-70
2024/04/04 04:34:09;;;;;;;7.53;5.83;;;22.80;55.60;;;;;;4995416;28;20955;-70
2024/04/04 04:36:44;;;;;;;7.60;6.10;;;22.80;55.70;;;;;;4995578;28;20173;-70
2024/04/04 04:39:10;;;;;;;8.50;6.17;;;22.80;55.60;;;;;;4995664;28;20525;-69
2024/04/04 04:41:36;;;;;;;7.80;6.30;;;22.80;55.60;;;;;;4996033;28;20436;-69
2024/04/04 04:44:02;;;;;;;7.87;6.43;;;22.80;55.60;;;;;;4995015;28;20967;-70
2024/04/04 04:46:27;;;;;;;7.40;6.33;;;22.80;55.60;;;;;;4995630;28;20620;-69
2024/04/04 04:48:53;;;;;;;7.57;6.37;;;22.80;55.60;;;;;;4995285;28;20551;-71
2024/04/04 04:51:18;;;;;;;8.23;5.90;;;22.80;55.60;;;;;;4994918;28;20205;-69
2024/04/04 04:53:44;;;;;;;7.37;5.37;;;22.80;55.60;;;;;;4995364;28;20723;-69
2024/04/04 04:56:10;;;;;;;8.27;6.03;;;22.80;55.60;;;;;;4995215;28;20177;-68
2024/04/04 04:58:36;;;;;;;5.63;5.13;;;22.80;55.60;;;;;;4995393;28;20215;-68
2024/04/04 05:01:03;;;;;;;6.50;5.83;;;22.80;55.60;;;;;;4994855;28;20436;-69
2024/04/04 05:03:29;;;;;;;7.30;5.77;;;22.80;55.60;;;;;;4995137;28;20188;-70
2024/04/04 05:05:55;;;;;;;6.97;5.30;;;22.80;56.10;;;;;;4994494;28;20459;-70
2024/04/04 05:08:21;;;;;;;6.87;5.27;;;22.80;55.60;;;;;;4995154;28;20411;-69
2024/04/04 05:10:47;;;;;;;8.93;6.47;;;22.80;55.60;;;;;;4994825;28;20185;-70
2024/04/04 05:13:13;;;;;;;7.53;5.93;;;22.80;55.60;;;;;;4994729;28;20223;-68
2024/04/04 05:15:55;;;;;;;12.53;6.10;;;22.80;55.60;;;;;;4994525;28;20231;-69
2024/04/04 05:18:21;;;;;;;6.90;6.07;;;22.80;55.60;;;;;;4995175;28;20427;-69
2024/04/04 05:20:47;;;;;;;7.40;5.83;;;22.80;55.60;;;;;;4994731;28;20432;-70
2024/04/04 05:23:13;;;;;;;6.90;6.20;;;22.80;55.70;;;;;;4994815;28;20419;-70
2024/04/04 05:25:39;;;;;;;6.50;5.23;;;22.80;55.60;;;;;;4994557;28;20753;-70
2024/04/04 05:28:05;;;;;;;7.57;5.80;;;22.80;55.60;;;;;;4995146;28;20192;-70
2024/04/04 05:30:31;;;;;;;7.00;5.37;;;22.80;55.60;;;;;;4994642;28;20431;-70
2024/04/04 05:33:00;;;;;;;5.87;5.10;;;22.80;55.60;;;;;;4995051;28;20459;-69
2024/04/04 05:35:25;;;;;;;6.57;5.27;;;22.80;55.60;;;;;;4995294;28;20858;-69
2024/04/04 05:37:51;;;;;;;6.27;5.23;;;22.80;55.60;;;;;;4995034;28;20516;-69
2024/04/04 05:40:17;;;;;;;6.03;5.27;;;22.80;55.60;;;;;;4994587;28;20208;-69
2024/04/04 05:42:42;;;;;;;5.30;4.63;;;22.80;55.60;;;;;;4995306;28;20187;-69
2024/04/04 05:45:08;;;;;;;5.23;4.73;;;22.80;55.60;;;;;;4994658;28;20204;-68
2024/04/04 05:47:33;;;;;;;6.67;5.83;;;22.80;55.60;;;;;;4994879;28;20224;-69
2024/04/04 05:49:59;;;;;;;6.30;5.20;;;22.80;55.60;;;;;;4994729;28;20195;-69
2024/04/04 05:52:25;;;;;;;6.90;5.40;;;22.80;55.60;;;;;;4994720;28;20231;-70
2024/04/04 05:54:52;;;;;;;4.80;4.30;;;22.80;55.50;;;;;;4994919;28;20256;-71
2024/04/04 05:57:18;;;;;;;7.23;5.83;;;22.90;55.60;;;;;;4994610;28;20272;-68
2024/04/04 05:59:43;;;;;;;5.57;5.00;;;22.90;55.60;;;;;;4994998;28;20558;-69
2024/04/04 06:02:09;;;;;;;6.57;4.67;;;22.90;55.60;;;;;;4975705;28;20672;-68
2024/04/04 06:04:35;;;;;;;5.83;5.23;;;22.90;55.60;;;;;;4994948;28;20559;-70
2024/04/04 06:07:01;;;;;;;5.20;4.70;;;22.90;55.50;;;;;;4994773;28;20169;-69
2024/04/04 06:09:26;;;;;;;5.00;4.50;;;22.90;55.50;;;;;;4994153;28;20184;-70
2024/04/04 06:11:52;;;;;;;6.93;4.77;;;22.90;55.50;;;;;;4993912;28;20196;-70
2024/04/04 06:14:18;;;;;;;5.50;5.00;;;22.90;55.50;;;;;;4994412;28;20227;-68
2024/04/04 06:16:43;;;;;;;6.23;5.07;;;22.90;55.50;;;;;;4994882;28;20173;-69
2024/04/04 06:19:09;;;;;;;5.10;4.60;;;22.90;55.50;;;;;;4994389;28;20181;-69
2024/04/04 06:21:34;;;;;;;8.00;5.50;;;22.90;55.50;;;;;;4993685;28;20189;-68
2024/04/04 06:24:00;;;;;;;6.70;5.87;;;22.90;55.50;;;;;;4994259;28;20224;-70
2024/04/04 06:26:28;;;;;;;9.43;5.80;;;22.90;55.50;;;;;;4994168;28;20179;-68
2024/04/04 06:28:55;;;;;;;6.53;4.80;;;22.90;55.50;;;;;;4994163;28;20176;-69
2024/04/04 06:31:20;;;;;;;5.83;5.30;;;22.90;55.50;;;;;;4994322;28;20428;-68
2024/04/04 06:33:46;;;;;;;6.20;5.60;;;22.90;55.50;;;;;;4994226;28;20476;-69
2024/04/04 06:36:12;;;;;;;5.70;4.60;;;22.90;55.50;;;;;;4993949;28;20219;-69
2024/04/04 06:38:38;;;;;;;6.30;5.50;;;22.90;55.50;;;;;;4993984;28;20816;-70
2024/04/04 06:41:03;;;;;;;5.90;4.70;;;22.90;55.50;;;;;;4994033;28;20193;-70
2024/04/04 06:43:29;;;;;;;6.20;4.80;;;22.90;55.50;;;;;;4976140;28;20180;-70
2024/04/04 06:45:55;;;;;;;5.80;4.27;;;22.90;55.50;;;;;;4993782;28;20222;-70
2024/04/04 06:48:20;;;;;;;6.13;4.90;;;22.90;55.50;;;;;;4993820;28;20181;-70
2024/04/04 06:50:46;;;;;;;7.27;5.47;;;22.90;55.50;;;;;;4993627;28;20193;-70
2024/04/04 06:53:11;;;;;;;6.10;4.97;;;22.90;55.50;;;;;;4993881;28;20185;-69
2024/04/04 06:55:37;;;;;;;4.90;4.30;;;22.90;55.50;;;;;;4993779;28;20541;-70
2024/04/04 06:58:03;;;;;;;5.23;4.50;;;22.90;55.50;;;;;;4993414;28;20239;-69
2024/04/04 07:00:29;;;;;;;5.33;4.83;;;22.90;55.50;;;;;;4993613;28;20201;-69
2024/04/04 07:02:54;;;;;;;5.53;4.60;;;22.90;55.50;;;;;;4993563;28;20180;-69
2024/04/04 07:05:20;;;;;;;6.20;5.00;;;22.90;55.50;;;;;;4993517;28;20699;-70
2024/04/04 07:07:46;;;;;;;5.60;5.00;;;22.90;55.50;;;;;;4993779;28;20165;-70
2024/04/04 07:10:12;;;;;;;5.27;4.17;;;22.90;55.50;;;;;;4993813;28;20431;-69
2024/04/04 07:12:37;;;;;;;5.30;4.67;;;22.90;55.50;;;;;;4993781;28;20173;-70
2024/04/04 07:15:03;;;;;;;5.67;4.90;;;22.90;55.50;;;;;;4993648;28;20234;-69
2024/04/04 07:17:30;;;;;;;4.67;4.17;;;22.90;55.50;;;;;;4993240;28;20181;-69
2024/04/04 07:19:58;;;;;;;5.87;4.40;;;22.90;55.50;;;;;;4994322;28;20213;-70
2024/04/04 07:22:25;;;;;;;4.80;4.30;;;22.90;56.10;;;;;;4993526;28;20416;-69
2024/04/04 07:24:50;;;;;;;5.23;4.40;;;22.90;55.50;;;;;;4993157;28;20533;-70
2024/04/04 07:27:16;;;;;;;5.47;4.57;;;22.90;55.50;;;;;;4993825;28;20440;-71
2024/04/04 07:29:42;;;;;;;5.90;3.87;;;22.90;55.50;;;;;;4993653;28;20169;-70
2024/04/04 07:32:08;;;;;;;5.13;4.13;;;22.90;55.50;;;;;;4993283;28;20169;-70
2024/04/04 07:34:34;;;;;;;5.20;4.33;;;22.90;55.50;;;;;;4993416;28;20507;-69
2024/04/04 07:37:00;;;;;;;4.30;3.83;;;22.90;55.50;;;;;;4993028;28;20420;-69
2024/04/04 07:39:26;;;;;;;5.00;4.50;;;22.90;55.50;;;;;;4993013;28;20430;-69
2024/04/04 07:41:52;;;;;;;6.07;5.47;;;22.90;55.50;;;;;;4992991;28;20660;-69
2024/04/04 07:44:18;;;;;;;4.67;4.27;;;22.90;55.50;;;;;;4993098;28;20563;-69
2024/04/04 07:46:44;;;;;;;4.27;3.87;;;22.90;55.50;;;;;;4993845;28;20416;-70
2024/04/04 07:49:09;;;;;;;4.37;3.83;;;22.90;55.50;;;;;;4992826;28;20683;-68
2024/04/04 07:51:36;;;;;;;4.63;3.90;;;22.90;55.50;;;;;;4993662;28;20208;-68
2024/04/04 07:54:02;;;;;;;5.10;4.23;;;22.90;55.50;;;;;;4993516;28;20220;-69
2024/04/04 07:56:28;;;;;;;6.07;4.90;;;22.90;55.50;;;;;;4993411;28;20416;-69
2024/04/04 07:58:54;;;;;;;6.00;4.40;;;22.90;55.50;;;;;;4993467;28;20805;-69
2024/04/04 08:01:21;;;;;;;5.03;4.13;;;22.90;55.50;;;;;;4993469;28;20459;-71
2024/04/04 08:03:48;;;;;;;4.40;4.00;;;22.90;55.50;;;;;;4993678;28;20231;-70
2024/04/04 08:06:14;;;;;;;4.17;3.77;;;22.90;55.50;;;;;;4993549;28;20428;-70
2024/04/04 08:08:41;;;;;;;4.67;4.00;;;22.90;55.50;;;;;;4993527;28;20427;-70
2024/04/04 08:11:10;;;;;;;4.90;4.10;;;22.90;55.50;;;;;;4993315;28;20205;-68
2024/04/04 08:13:36;;;;;;;4.63;4.17;;;22.90;55.50;;;;;;4993491;28;20408;-69
2024/04/04 08:16:01;;;;;;;4.97;4.47;;;22.90;55.50;;;;;;4975412;28;20503;-68
2024/04/04 08:18:27;;;;;;;5.13;4.27;;;22.90;55.50;;;;;;4993030;28;20173;-70
2024/04/04 08:20:52;;;;;;;4.63;4.20;;;22.90;55.50;;;;;;4993348;28;20193;-70
2024/04/04 08:23:18;;;;;;;5.17;4.10;;;22.90;55.50;;;;;;4993710;28;20329;-70
2024/04/04 08:25:57;;;;;;;6.60;4.40;;;22.90;55.50;;;;;;4994826;28;20196;-68
2024/04/04 08:28:23;;;;;;;4.77;3.90;;;23.00;55.60;;;;;;4996574;28;20189;-70
2024/04/04 08:31:00;;;;;;;4.47;4.00;;;22.90;55.50;;;;;;4996499;28;20515;-70
2024/04/04 08:33:26;;;;;;;4.70;4.20;;;23.00;55.60;;;;;;4996275;28;20451;-69
2024/04/04 08:35:52;;;;;;;4.70;3.93;;;23.00;55.60;;;;;;4996223;28;20416;-68
2024/04/04 08:38:18;;;;;;;6.80;3.90;;;22.90;55.50;;;;;;4996588;28;20444;-69
2024/04/04 08:40:44;;;;;;;4.80;3.90;;;23.00;55.60;;;;;;4995978;28;20428;-70
2024/04/04 08:43:10;;;;;;;5.47;4.43;;;23.00;55.50;;;;;;4996348;28;20422;-71
2024/04/04 08:45:47;;;;;;;4.73;4.20;;;23.00;55.50;;;;;;4996345;28;20499;-68
2024/04/04 08:48:17;;;;;;;5.57;4.60;;;23.00;55.60;;;;;;4996236;28;20393;-68
2024/04/04 08:50:47;;;;;;;4.20;3.60;;;23.00;55.60;;;;;;4995463;28;20502;-71
2024/04/04 08:53:22;;;;;;;4.47;4.07;;;23.00;55.50;;;;;;4978219;28;20447;-69
2024/04/04 08:55:51;;;;;;;5.33;4.20;;;23.00;55.50;;;;;;4996247;28;20406;-68
2024/04/04 08:58:18;;;;;;;4.47;3.87;;;23.00;55.50;;;;;;4995294;28;20468;-70
2024/04/04 09:00:46;;;;;;;4.67;4.00;;;23.00;55.60;;;;;;4996169;28;20420;-69
2024/04/04 09:03:12;;;;;;;4.10;3.70;;;22.90;55.50;;;;;;4996117;28;20405;-69
2024/04/04 09:05:48;;;;;;;4.40;4.00;;;23.00;55.50;;;;;;4995832;28;20471;-69
2024/04/04 09:08:14;;;;;;;4.73;4.30;;;23.00;55.50;;;;;;4995974;28;20400;-70
2024/04/04 09:10:41;;;;;;;4.80;4.30;;;23.00;56.10;;;;;;4995551;28;20511;-70
2024/04/04 09:13:07;;;;;;;5.10;4.30;;;23.00;55.60;;;;;;4995646;28;20419;-69
2024/04/04 09:15:36;;;;;;;4.03;3.63;;;23.00;55.50;;;;;;4995330;28;20428;-70
2024/04/04 09:18:06;;;;;;;4.50;3.67;;;23.00;55.50;;;;;;4995300;28;20986;-70
2024/04/04 09:20:36;;;;;;;5.80;3.90;;;23.00;55.50;;;;;;4996212;28;20436;-69
2024/04/04 09:23:03;;;;;;;4.53;3.50;;;23.00;55.50;;;;;;4995923;28;20814;-70
2024/04/04 09:25:30;;;;;;;4.20;3.73;;;23.00;55.50;;;;;;4995548;28;20456;-70
2024/04/04 09:27:57;;;;;;;4.40;3.43;;;23.00;55.50;;;;;;4995875;28;20411;-67
2024/04/04 09:30:26;;;;;;;4.17;3.63;;;23.00;55.50;;;;;;4995303;28;20440;-70
2024/04/04 09:32:52;;;;;;;4.47;3.90;;;23.00;55.50;;;;;;4995060;28;20423;-67
2024/04/04 09:35:20;;;;;;;5.10;4.07;;;23.00;55.50;;;;;;4995820;28;20518;-70
2024/04/04 09:37:52;;;;;;;5.07;4.07;;;23.00;55.50;;;;;;4994595;28;20502;-68
2024/04/04 09:40:18;;;;;;;4.60;3.87;;;23.00;55.50;;;;;;4995503;28;20435;-71
2024/04/04 09:42:45;;;;;;;5.53;4.40;;;23.00;55.50;;;;;;4995072;28;20419;-69
2024/04/04 09:45:12;;;;;;;3.93;3.57;;;23.00;55.60;;;;;;4977172;28;20466;-70
2024/04/04 09:47:44;;;;;;;5.07;4.13;;;23.00;55.50;;;;;;4994760;28;20416;-70
2024/04/04 09:50:10;;;;;;;4.33;3.83;;;23.00;55.50;;;;;;4994931;28;20840;-69
2024/04/04 09:52:38;;;;;;;4.33;3.70;;;23.00;55.60;;;;;;4994581;28;20855;-69
2024/04/04 09:55:10;;;;;;;3.93;3.47;;;23.00;55.60;;;;;;4994815;28;20418;-70
2024/04/04 09:57:37;;;;;;;4.33;3.57;;;23.00;55.60;;;;;;4994839;28;20487;-69
2024/04/04 10:00:17;;;;;;;4.03;3.63;;;22.90;55.50;;;;;;4995213;28;20444;-68
2024/04/04 10:02:54;;;;;;;3.87;3.40;;;22.90;55.50;;;;;;4994509;28;20912;-70
2024/04/04 10:05:33;;;;;;;3.67;3.23;;;22.90;55.50;;;;;;4994555;28;20440;-71
2024/04/04 10:08:12;;;;;;;4.20;3.80;;;22.90;55.50;;;;;;4994715;28;20404;-70
2024/04/04 10:10:43;;;;;;;3.90;3.40;;;22.90;55.50;;;;;;4995038;28;20767;-70
2024/04/04 10:13:12;;;;;;;4.17;3.03;;;22.90;55.50;;;;;;4994315;28;20408;-69
2024/04/04 10:15:50;;;;;;;3.77;3.37;;;22.90;55.50;;;;;;4994723;28;20470;-70
2024/04/04 10:18:20;;;;;;;4.20;3.70;;;22.90;55.50;;;;;;4994272;28;20444;-70
2024/04/04 10:20:57;;;;;;;4.77;4.03;;;22.90;55.50;;;;;;4993553;28;20436;-70
2024/04/04 10:23:27;;;;;;;6.67;3.90;;;22.90;55.50;;;;;;4994156;28;20416;-70
2024/04/04 10:26:03;;;;;;;4.27;3.80;;;23.00;55.60;;;;;;4994068;28;20559;-69
2024/04/04 10:28:29;;;;;;;3.83;3.20;;;22.90;55.50;;;;;;4994723;28;20766;-70
2024/04/04 10:30:58;;;;;;;4.90;3.50;;;22.90;55.50;;;;;;4994216;28;20432;-70
2024/04/04 10:33:24;;;;;;;4.30;3.70;;;22.90;55.50;;;;;;4993940;28;20177;-70
2024/04/04 10:36:01;;;;;;;4.03;3.37;;;22.90;55.50;;;;;;4994330;28;20470;-70
2024/04/04 10:38:26;;;;;;;3.30;3.00;;;22.90;55.50;;;;;;4994121;28;20180;-68
2024/04/04 10:40:55;;;;;;;4.43;4.03;;;22.90;55.50;;;;;;4993769;28;20439;-69
2024/04/04 10:43:21;;;;;;;4.47;3.43;;;22.90;55.50;;;;;;4994144;28;20731;-68
2024/04/04 10:45:49;;;;;;;4.23;3.67;;;22.90;55.50;;;;;;4994757;28;20507;-69
2024/04/04 10:48:14;;;;;;;4.70;3.60;;;22.90;55.50;;;;;;4993204;28;20519;-69
2024/04/04 10:50:40;;;;;;;4.20;3.60;;;22.90;55.50;;;;;;4994011;28;20480;-70
2024/04/04 10:53:06;;;;;;;4.47;3.80;;;22.90;55.50;;;;;;4993871;28;20641;-69
2024/04/04 10:55:33;;;;;;;3.30;3.00;;;22.90;55.50;;;;;;4994263;28;20416;-70
2024/04/04 10:57:59;;;;;;;3.50;3.20;;;23.00;55.60;;;;;;4993890;28;20184;-70
2024/04/04 11:00:29;;;;;;;4.23;3.53;;;22.90;55.50;;;;;;4994068;28;20436;-67
2024/04/04 11:02:58;;;;;;;4.37;3.97;;;22.90;55.50;;;;;;4994125;28;20888;-69
2024/04/04 11:05:24;;;;;;;3.90;3.30;;;23.00;55.60;;;;;;4993361;28;20463;-69
2024/04/04 11:07:57;;;;;;;7.20;5.07;;;22.90;55.50;;;;;;4993948;28;20408;-70
2024/04/04 11:10:24;;;;;;;17.30;10.53;;;23.00;55.60;;;;;;4993437;28;20442;-70
2024/04/04 11:12:49;;;;;;;35.63;17.70;;;23.00;55.60;;;;;;4994069;28;21050;-71
2024/04/04 11:15:15;;;;;;;41.13;21.40;;;23.00;55.60;;;;;;4993726;28;20416;-70
2024/04/04 11:17:41;;;;;;;35.93;19.50;;;22.90;55.50;;;;;;4993190;28;20623;-69
2024/04/04 11:20:08;;;;;;;34.47;19.30;;;23.00;55.60;;;;;;4993437;28;20199;-71
2024/04/04 11:22:37;;;;;;;37.90;19.77;;;23.00;55.60;;;;;;4993656;28;20424;-68
2024/04/04 11:25:05;;;;;;;38.00;21.70;;;23.00;55.60;;;;;;4993881;28;21188;-70
2024/04/04 11:27:31;;;;;;;35.07;20.87;;;23.00;55.60;;;;;;4993704;28;20467;-69
2024/04/04 11:29:57;;;;;;;39.77;20.23;;;23.00;55.60;;;;;;4993476;28;20408;-70
2024/04/04 11:32:23;;;;;;;44.30;22.00;;;23.00;55.60;;;;;;4993870;28;20239;-69
2024/04/04 11:34:48;;;;;;;36.90;19.47;;;23.00;55.60;;;;;;4993434;28;20911;-70
2024/04/04 11:37:14;;;;;;;40.70;21.83;;;23.00;55.60;;;;;;4993854;28;20542;-68
2024/04/04 11:39:39;;;;;;;49.50;24.50;;;22.90;55.50;;;;;;4993665;28;20200;-68
2024/04/04 11:42:06;;;;;;;38.10;20.33;;;22.90;55.50;;;;;;4993785;28;20204;-69
2024/04/04 11:44:31;;;;;;;43.80;23.77;;;22.90;55.50;;;;;;4993378;28;20204;-69
2024/04/04 11:46:57;;;;;;;47.97;22.97;;;22.90;55.50;;;;;;4975613;28;20424;-69
2024/04/04 11:49:23;;;;;;;46.87;22.90;;;23.00;55.70;;;;;;4975625;28;20237;-70
2024/04/04 11:51:49;;;;;;;41.50;23.00;;;22.90;55.50;;;;;;4993399;28;20643;-69
2024/04/04 11:54:14;;;;;;;43.10;24.00;;;23.00;55.60;;;;;;4975596;28;20200;-71
2024/04/04 11:56:40;;;;;;;43.77;25.07;;;23.00;55.60;;;;;;4993694;28;20189;-70
2024/04/04 11:59:06;;;;;;;49.70;23.13;;;23.00;55.60;;;;;;4993957;28;20184;-70
2024/04/04 12:01:32;;;;;;;41.27;24.40;;;22.90;55.50;;;;;;4996327;28;20206;-71
2024/04/04 12:03:57;;;;;;;52.67;24.37;;;23.00;55.70;;;;;;4996619;28;20176;-69
2024/04/04 12:06:23;;;;;;;43.07;23.47;;;23.00;55.60;;;;;;4994878;28;20415;-70
2024/04/04 12:08:49;;;;;;;54.07;27.90;;;23.00;55.60;;;;;;4995049;28;20173;-70
2024/04/04 12:11:15;;;;;;;51.50;26.63;;;23.00;55.60;;;;;;4994309;28;20196;-69
2024/04/04 12:13:41;;;;;;;47.20;25.00;;;23.00;55.60;;;;;;4994638;28;20492;-70
2024/04/04 12:16:08;;;;;;;49.23;25.53;;;23.00;55.60;;;;;;4994638;28;21105;-70
2024/04/04 12:21:18;;;;;;;40.83;23.77;;;23.00;55.60;;;;;;4994441;28;20435;-69
2024/04/04 12:23:45;;;;;;;50.50;25.17;;;23.00;55.60;;;;;;4995089;28;20420;-70
2024/04/04 12:26:12;;;;;;;46.90;23.77;;;22.90;55.50;;;;;;4978079;28;20296;-70
2024/04/04 12:28:37;;;;;;;48.43;25.43;;;22.90;55.50;;;;;;4995811;28;20420;-71
2024/04/04 12:31:03;;;;;;;47.93;25.70;;;22.90;55.50;;;;;;4995346;28;20494;-69
2024/04/04 12:33:29;;;;;;;51.47;23.17;;;23.00;55.60;;;;;;4995390;28;20173;-70
2024/04/04 12:35:55;;;;;;;49.70;24.80;;;22.90;55.50;;;;;;4995796;28;20211;-68
2024/04/04 12:38:20;;;;;;;50.87;25.67;;;22.90;55.50;;;;;;4995221;28;20252;-67
2024/04/04 12:40:46;;;;;;;44.73;24.30;;;22.90;55.50;;;;;;4995342;28;20663;-69
2024/04/04 12:43:12;;;;;;;52.40;24.83;;;22.90;55.60;;;;;;4995057;28;20424;-70